Terminal Aerodrome Forecast
Issued by NWS

Home | Current Version | Previous Version | Text Only | Print | Product List | Glossary On
Versions: 1 2 3 4 5 6 7 8 9 10 11 12 13 14 15 16 17 18 19 20 21 22 23 24 25 26 27
699
FTUS41 KBOX 121737
TAFFMH
TAF
KFMH 121737Z 1218/1318 26007KT P6SM SCT150
     FM122100 21006KT P6SM BKN120
     FM130100 VRB03KT 3SM -SN OVC025
     FM130300 00000KT 2SM -SN OVC015
     FM130900 31004KT P6SM BKN050
     FM131200 31011KT P6SM BKN060
     FM131500 31014G25KT P6SM BKN035=

USA.gov is the U.S. government's official web portal to all federal, state and local government web resources and services.